sensor_id;sensor_type;location;lat;lon;timestamp;temperature;humidity
14347;DHT22;7257;52.158;9.968;2022-08-03T00:00:18;22.30;60.90
14347;DHT22;7257;52.158;9.968;2022-08-03T00:00:40;22.30;61.90
14347;DHT22;7257;52.158;9.968;2022-08-03T00:01:02;22.40;61.50
14347;DHT22;7257;52.158;9.968;2022-08-03T00:01:23;22.40;60.70
14347;DHT22;7257;52.158;9.968;2022-08-03T00:01:44;22.30;60.70
14347;DHT22;7257;52.158;9.968;2022-08-03T00:02:06;22.30;64.20
14347;DHT22;7257;52.158;9.968;2022-08-03T00:02:26;22.30;61.10
14347;DHT22;7257;52.158;9.968;2022-08-03T00:02:47;22.30;59.70
14347;DHT22;7257;52.158;9.968;2022-08-03T00:03:08;22.30;60.40
14347;DHT22;7257;52.158;9.968;2022-08-03T00:03:30;22.40;61.80
14347;DHT22;7257;52.158;9.968;2022-08-03T00:03:51;22.30;60.20
14347;DHT22;7257;52.158;9.968;2022-08-03T00:04:12;22.30;62.00
14347;DHT22;7257;52.158;9.968;2022-08-03T00:04:33;22.30;61.70
14347;DHT22;7257;52.158;9.968;2022-08-03T00:04:55;22.30;64.70
14347;DHT22;7257;52.158;9.968;2022-08-03T00:05:16;22.20;60.50
14347;DHT22;7257;52.158;9.968;2022-08-03T00:05:37;22.20;63.00
14347;DHT22;7257;52.158;9.968;2022-08-03T00:05:58;22.20;63.90
14347;DHT22;7257;52.158;9.968;2022-08-03T00:06:20;22.10;63.40
14347;DHT22;7257;52.158;9.968;2022-08-03T00:06:40;22.10;61.40
14347;DHT22;7257;52.158;9.968;2022-08-03T00:07:01;22.10;61.00
14347;DHT22;7257;52.158;9.968;2022-08-03T00:07:22;22.10;63.60
14347;DHT22;7257;52.158;9.968;2022-08-03T00:07:43;22.10;62.40
14347;DHT22;7257;52.158;9.968;2022-08-03T00:08:05;22.10;73.10
14347;DHT22;7257;52.158;9.968;2022-08-03T00:08:26;22.10;68.10
14347;DHT22;7257;52.158;9.968;2022-08-03T00:08:47;22.10;70.00
14347;DHT22;7257;52.158;9.968;2022-08-03T00:09:08;22.10;64.30
14347;DHT22;7257;52.158;9.968;2022-08-03T00:09:30;22.10;65.00
14347;DHT22;7257;52.158;9.968;2022-08-03T00:09:51;22.10;64.30
14347;DHT22;7257;52.158;9.968;2022-08-03T00:10:12;22.10;68.30
14347;DHT22;7257;52.158;9.968;2022-08-03T00:10:33;22.10;67.20
14347;DHT22;7257;52.158;9.968;2022-08-03T00:10:54;22.10;61.30
14347;DHT22;7257;52.158;9.968;2022-08-03T00:11:16;22.10;65.00
14347;DHT22;7257;52.158;9.968;2022-08-03T00:11:37;22.10;60.80
14347;DHT22;7257;52.158;9.968;2022-08-03T00:11:58;22.10;62.30
14347;DHT22;7257;52.158;9.968;2022-08-03T00:12:19;22.10;60.90
14347;DHT22;7257;52.158;9.968;2022-08-03T00:12:41;22.10;63.00
14347;DHT22;7257;52.158;9.968;2022-08-03T00:13:02;22.00;63.70
14347;DHT22;7257;52.158;9.968;2022-08-03T00:13:24;22.00;65.80
14347;DHT22;7257;52.158;9.968;2022-08-03T00:13:46;22.00;71.10
14347;DHT22;7257;52.158;9.968;2022-08-03T00:14:08;22.00;74.90
14347;DHT22;7257;52.158;9.968;2022-08-03T00:14:29;22.00;61.70
14347;DHT22;7257;52.158;9.968;2022-08-03T00:14:50;22.00;60.90
14347;DHT22;7257;52.158;9.968;2022-08-03T00:15:11;22.00;61.70
14347;DHT22;7257;52.158;9.968;2022-08-03T00:15:32;22.00;63.50
14347;DHT22;7257;52.158;9.968;2022-08-03T00:15:54;22.00;62.40
14347;DHT22;7257;52.158;9.968;2022-08-03T00:16:15;22.00;62.20
14347;DHT22;7257;52.158;9.968;2022-08-03T00:16:36;22.00;61.00
14347;DHT22;7257;52.158;9.968;2022-08-03T00:16:57;22.00;63.10
14347;DHT22;7257;52.158;9.968;2022-08-03T00:17:19;22.00;63.10
14347;DHT22;7257;52.158;9.968;2022-08-03T00:17:40;22.10;63.10
14347;DHT22;7257;52.158;9.968;2022-08-03T00:18:01;22.10;63.10
14347;DHT22;7257;52.158;9.968;2022-08-03T00:18:22;22.10;60.60
14347;DHT22;7257;52.158;9.968;2022-08-03T00:18:44;22.10;61.50
14347;DHT22;7257;52.158;9.968;2022-08-03T00:19:05;22.00;61.80
14347;DHT22;7257;52.158;9.968;2022-08-03T00:19:26;22.10;62.40
14347;DHT22;7257;52.158;9.968;2022-08-03T00:19:47;22.10;61.20
14347;DHT22;7257;52.158;9.968;2022-08-03T00:20:09;22.00;60.10
14347;DHT22;7257;52.158;9.968;2022-08-03T00:20:31;22.10;62.00
14347;DHT22;7257;52.158;9.968;2022-08-03T00:20:52;22.00;64.70
14347;DHT22;7257;52.158;9.968;2022-08-03T00:21:13;22.00;65.20
14347;DHT22;7257;52.158;9.968;2022-08-03T00:21:34;22.00;63.70
14347;DHT22;7257;52.158;9.968;2022-08-03T00:21:55;22.00;66.80
14347;DHT22;7257;52.158;9.968;2022-08-03T00:22:16;22.00;64.20
14347;DHT22;7257;52.158;9.968;2022-08-03T00:22:37;22.00;67.00
14347;DHT22;7257;52.158;9.968;2022-08-03T00:22:58;22.00;64.40
14347;DHT22;7257;52.158;9.968;2022-08-03T00:23:19;22.00;65.30
14347;DHT22;7257;52.158;9.968;2022-08-03T00:23:41;22.00;65.30
14347;DHT22;7257;52.158;9.968;2022-08-03T00:24:02;22.10;65.40
14347;DHT22;7257;52.158;9.968;2022-08-03T00:24:23;22.00;65.10
14347;DHT22;7257;52.158;9.968;2022-08-03T00:24:44;22.10;66.30
14347;DHT22;7257;52.158;9.968;2022-08-03T00:25:05;22.10;60.80
14347;DHT22;7257;52.158;9.968;2022-08-03T00:25:27;22.10;66.10
14347;DHT22;7257;52.158;9.968;2022-08-03T00:25:48;22.10;65.40
14347;DHT22;7257;52.158;9.968;2022-08-03T00:26:09;22.10;60.30
14347;DHT22;7257;52.158;9.968;2022-08-03T00:26:30;22.10;64.90
14347;DHT22;7257;52.158;9.968;2022-08-03T00:26:52;22.10;62.20
14347;DHT22;7257;52.158;9.968;2022-08-03T00:27:13;22.10;66.10
14347;DHT22;7257;52.158;9.968;2022-08-03T00:27:34;22.10;63.70
14347;DHT22;7257;52.158;9.968;2022-08-03T00:27:55;22.00;61.20
14347;DHT22;7257;52.158;9.968;2022-08-03T00:28:15;22.10;59.00
14347;DHT22;7257;52.158;9.968;2022-08-03T00:28:37;22.00;62.90
14347;DHT22;7257;52.158;9.968;2022-08-03T00:28:59;22.00;64.20
14347;DHT22;7257;52.158;9.968;2022-08-03T00:29:20;22.00;65.40
14347;DHT22;7257;52.158;9.968;2022-08-03T00:29:41;22.00;62.20
14347;DHT22;7257;52.158;9.968;2022-08-03T00:30:04;22.00;65.30
14347;DHT22;7257;52.158;9.968;2022-08-03T00:30:25;22.00;67.60
14347;DHT22;7257;52.158;9.968;2022-08-03T00:30:46;22.00;65.50
14347;DHT22;7257;52.158;9.968;2022-08-03T00:31:07;22.00;65.50
14347;DHT22;7257;52.158;9.968;2022-08-03T00:31:29;22.00;62.70
14347;DHT22;7257;52.158;9.968;2022-08-03T00:31:50;22.00;63.40
14347;DHT22;7257;52.158;9.968;2022-08-03T00:32:11;22.00;62.40
14347;DHT22;7257;52.158;9.968;2022-08-03T00:32:32;22.00;65.90
14347;DHT22;7257;52.158;9.968;2022-08-03T00:32:54;22.00;63.80
14347;DHT22;7257;52.158;9.968;2022-08-03T00:33:15;22.00;62.90
14347;DHT22;7257;52.158;9.968;2022-08-03T00:33:36;22.00;61.40
14347;DHT22;7257;52.158;9.968;2022-08-03T00:33:58;22.00;60.90
14347;DHT22;7257;52.158;9.968;2022-08-03T00:34:19;22.00;61.80
14347;DHT22;7257;52.158;9.968;2022-08-03T00:34:40;22.00;62.30
14347;DHT22;7257;52.158;9.968;2022-08-03T00:35:01;22.00;64.30
14347;DHT22;7257;52.158;9.968;2022-08-03T00:35:22;22.00;62.40
14347;DHT22;7257;52.158;9.968;2022-08-03T00:35:44;22.00;60.00
14347;DHT22;7257;52.158;9.968;2022-08-03T00:36:05;22.10;67.40
14347;DHT22;7257;52.158;9.968;2022-08-03T00:36:26;22.10;62.90
14347;DHT22;7257;52.158;9.968;2022-08-03T00:36:47;22.10;63.00
14347;DHT22;7257;52.158;9.968;2022-08-03T00:37:09;22.00;65.00
14347;DHT22;7257;52.158;9.968;2022-08-03T00:37:30;22.10;64.10
14347;DHT22;7257;52.158;9.968;2022-08-03T00:37:51;22.00;58.30
14347;DHT22;7257;52.158;9.968;2022-08-03T00:38:12;22.10;60.30
14347;DHT22;7257;52.158;9.968;2022-08-03T00:38:34;22.10;61.20
14347;DHT22;7257;52.158;9.968;2022-08-03T00:38:55;22.10;61.40
14347;DHT22;7257;52.158;9.968;2022-08-03T00:39:16;22.10;61.60
14347;DHT22;7257;52.158;9.968;2022-08-03T00:39:37;22.10;60.80
14347;DHT22;7257;52.158;9.968;2022-08-03T00:40:00;22.00;62.40
14347;DHT22;7257;52.158;9.968;2022-08-03T00:40:21;22.00;63.10
14347;DHT22;7257;52.158;9.968;2022-08-03T00:40:42;22.00;60.80
14347;DHT22;7257;52.158;9.968;2022-08-03T00:41:04;22.00;61.30
14347;DHT22;7257;52.158;9.968;2022-08-03T00:41:24;22.10;60.00
14347;DHT22;7257;52.158;9.968;2022-08-03T00:41:45;22.00;62.00
14347;DHT22;7257;52.158;9.968;2022-08-03T00:42:06;22.00;60.50
14347;DHT22;7257;52.158;9.968;2022-08-03T00:42:28;22.10;60.80
14347;DHT22;7257;52.158;9.968;2022-08-03T00:42:51;22.00;64.00
14347;DHT22;7257;52.158;9.968;2022-08-03T00:43:13;22.00;62.50
14347;DHT22;7257;52.158;9.968;2022-08-03T00:43:35;22.00;63.30
14347;DHT22;7257;52.158;9.968;2022-08-03T00:43:55;22.00;60.80
14347;DHT22;7257;52.158;9.968;2022-08-03T00:44:18;22.00;62.70
14347;DHT22;7257;52.158;9.968;2022-08-03T00:44:39;22.00;62.10
14347;DHT22;7257;52.158;9.968;2022-08-03T00:45:01;22.00;62.70
14347;DHT22;7257;52.158;9.968;2022-08-03T00:45:24;22.00;70.60
14347;DHT22;7257;52.158;9.968;2022-08-03T00:45:45;22.00;63.20
14347;DHT22;7257;52.158;9.968;2022-08-03T00:46:06;22.00;62.00
14347;DHT22;7257;52.158;9.968;2022-08-03T00:46:28;22.00;61.30
14347;DHT22;7257;52.158;9.968;2022-08-03T00:46:49;22.10;62.80
14347;DHT22;7257;52.158;9.968;2022-08-03T00:47:11;22.00;59.50
14347;DHT22;7257;52.158;9.968;2022-08-03T00:47:32;22.10;61.10
14347;DHT22;7257;52.158;9.968;2022-08-03T00:47:53;22.00;61.70
14347;DHT22;7257;52.158;9.968;2022-08-03T00:48:15;22.00;63.50
14347;DHT22;7257;52.158;9.968;2022-08-03T00:48:36;22.00;65.50
14347;DHT22;7257;52.158;9.968;2022-08-03T00:48:56;22.00;64.20
14347;DHT22;7257;52.158;9.968;2022-08-03T00:49:17;22.00;65.00
14347;DHT22;7257;52.158;9.968;2022-08-03T00:49:39;22.00;65.10
14347;DHT22;7257;52.158;9.968;2022-08-03T00:50:02;21.90;61.90
14347;DHT22;7257;52.158;9.968;2022-08-03T00:50:25;22.00;63.60
14347;DHT22;7257;52.158;9.968;2022-08-03T00:50:46;22.00;64.00
14347;DHT22;7257;52.158;9.968;2022-08-03T00:51:08;22.00;64.20
14347;DHT22;7257;52.158;9.968;2022-08-03T00:51:29;22.00;64.20
14347;DHT22;7257;52.158;9.968;2022-08-03T00:51:51;22.00;64.70
14347;DHT22;7257;52.158;9.968;2022-08-03T00:52:13;22.00;62.90
14347;DHT22;7257;52.158;9.968;2022-08-03T00:52:35;21.90;64.20
14347;DHT22;7257;52.158;9.968;2022-08-03T00:52:58;21.90;63.20
14347;DHT22;7257;52.158;9.968;2022-08-03T00:53:19;21.90;63.70
14347;DHT22;7257;52.158;9.968;2022-08-03T00:53:40;22.00;64.40
14347;DHT22;7257;52.158;9.968;2022-08-03T00:54:02;21.90;64.00
14347;DHT22;7257;52.158;9.968;2022-08-03T00:54:24;21.90;60.80
14347;DHT22;7257;52.158;9.968;2022-08-03T00:54:45;21.90;62.40
14347;DHT22;7257;52.158;9.968;2022-08-03T00:55:06;21.90;60.90
14347;DHT22;7257;52.158;9.968;2022-08-03T00:55:27;21.80;62.90
14347;DHT22;7257;52.158;9.968;2022-08-03T00:55:50;21.80;61.20
14347;DHT22;7257;52.158;9.968;2022-08-03T00:56:12;21.80;62.40
14347;DHT22;7257;52.158;9.968;2022-08-03T00:56:34;21.90;61.10
14347;DHT22;7257;52.158;9.968;2022-08-03T00:56:55;21.90;61.60
14347;DHT22;7257;52.158;9.968;2022-08-03T00:57:17;21.90;66.50
14347;DHT22;7257;52.158;9.968;2022-08-03T00:57:38;21.90;62.50
14347;DHT22;7257;52.158;9.968;2022-08-03T00:58:00;21.90;60.60
14347;DHT22;7257;52.158;9.968;2022-08-03T00:58:24;21.90;61.10
14347;DHT22;7257;52.158;9.968;2022-08-03T00:58:46;21.90;60.60
14347;DHT22;7257;52.158;9.968;2022-08-03T00:59:09;21.90;62.80
14347;DHT22;7257;52.158;9.968;2022-08-03T00:59:31;21.90;64.50
14347;DHT22;7257;52.158;9.968;2022-08-03T00:59:52;21.90;63.10
14347;DHT22;7257;52.158;9.968;2022-08-03T01:00:18;21.90;63.80
14347;DHT22;7257;52.158;9.968;2022-08-03T01:00:39;21.90;64.70
14347;DHT22;7257;52.158;9.968;2022-08-03T01:01:01;21.90;65.00
14347;DHT22;7257;52.158;9.968;2022-08-03T01:01:26;21.90;64.90
14347;DHT22;7257;52.158;9.968;2022-08-03T01:01:47;21.90;63.90
14347;DHT22;7257;52.158;9.968;2022-08-03T01:02:08;21.90;64.40
14347;DHT22;7257;52.158;9.968;2022-08-03T01:02:30;21.90;63.40
14347;DHT22;7257;52.158;9.968;2022-08-03T01:02:51;21.90;61.50
14347;DHT22;7257;52.158;9.968;2022-08-03T01:03:12;21.90;62.80
14347;DHT22;7257;52.158;9.968;2022-08-03T01:03:33;21.90;61.40
14347;DHT22;7257;52.158;9.968;2022-08-03T01:03:55;21.90;61.90
14347;DHT22;7257;52.158;9.968;2022-08-03T01:04:16;21.90;60.40
14347;DHT22;7257;52.158;9.968;2022-08-03T01:04:37;21.90;61.50
14347;DHT22;7257;52.158;9.968;2022-08-03T01:04:58;21.90;61.90
14347;DHT22;7257;52.158;9.968;2022-08-03T01:05:19;21.90;61.50
14347;DHT22;7257;52.158;9.968;2022-08-03T01:05:51;21.90;62.40
14347;DHT22;7257;52.158;9.968;2022-08-03T01:06:16;21.90;59.90
14347;DHT22;7257;52.158;9.968;2022-08-03T01:06:44;21.80;60.80
14347;DHT22;7257;52.158;9.968;2022-08-03T01:07:11;21.80;62.30
14347;DHT22;7257;52.158;9.968;2022-08-03T01:07:45;21.80;61.60
14347;DHT22;7257;52.158;9.968;2022-08-03T01:08:19;21.80;62.50
14347;DHT22;7257;52.158;9.968;2022-08-03T01:08:46;21.90;61.60
14347;DHT22;7257;52.158;9.968;2022-08-03T01:09:14;21.80;63.10
14347;DHT22;7257;52.158;9.968;2022-08-03T01:09:43;21.80;60.40
14347;DHT22;7257;52.158;9.968;2022-08-03T01:10:12;21.80;61.80
14347;DHT22;7257;52.158;9.968;2022-08-03T01:10:38;21.80;61.90
14347;DHT22;7257;52.158;9.968;2022-08-03T01:11:05;21.80;64.30
14347;DHT22;7257;52.158;9.968;2022-08-03T01:11:33;21.80;61.40
14347;DHT22;7257;52.158;9.968;2022-08-03T01:12:02;21.70;62.60
14347;DHT22;7257;52.158;9.968;2022-08-03T01:12:34;21.80;61.50
14347;DHT22;7257;52.158;9.968;2022-08-03T01:13:00;21.80;61.90
14347;DHT22;7257;52.158;9.968;2022-08-03T01:13:28;21.80;65.00
14347;DHT22;7257;52.158;9.968;2022-08-03T01:13:59;21.80;61.70
14347;DHT22;7257;52.158;9.968;2022-08-03T01:14:29;21.80;63.60
14347;DHT22;7257;52.158;9.968;2022-08-03T01:14:59;21.80;62.90
14347;DHT22;7257;52.158;9.968;2022-08-03T01:15:26;21.80;62.70
14347;DHT22;7257;52.158;9.968;2022-08-03T01:15:54;21.80;61.50
14347;DHT22;7257;52.158;9.968;2022-08-03T01:16:21;21.80;62.10
14347;DHT22;7257;52.158;9.968;2022-08-03T01:16:52;21.80;60.20
14347;DHT22;7257;52.158;9.968;2022-08-03T01:17:18;21.80;61.90
14347;DHT22;7257;52.158;9.968;2022-08-03T01:17:48;21.70;61.00
14347;DHT22;7257;52.158;9.968;2022-08-03T01:18:16;21.70;60.20
14347;DHT22;7257;52.158;9.968;2022-08-03T01:18:43;21.70;60.50
14347;DHT22;7257;52.158;9.968;2022-08-03T01:19:18;21.70;60.50
14347;DHT22;7257;52.158;9.968;2022-08-03T01:19:51;21.70;61.50
14347;DHT22;7257;52.158;9.968;2022-08-03T01:20:14;21.70;60.90
14347;DHT22;7257;52.158;9.968;2022-08-03T01:20:39;21.80;62.40
14347;DHT22;7257;52.158;9.968;2022-08-03T01:21:09;21.70;61.10
14347;DHT22;7257;52.158;9.968;2022-08-03T01:21:35;21.80;60.90
14347;DHT22;7257;52.158;9.968;2022-08-03T01:22:10;21.80;59.70
14347;DHT22;7257;52.158;9.968;2022-08-03T01:23:02;21.80;63.10
14347;DHT22;7257;52.158;9.968;2022-08-03T01:23:34;21.80;62.20
14347;DHT22;7257;52.158;9.968;2022-08-03T01:24:18;21.70;62.00
14347;DHT22;7257;52.158;9.968;2022-08-03T01:24:49;21.80;60.20
14347;DHT22;7257;52.158;9.968;2022-08-03T01:25:26;21.80;59.30
14347;DHT22;7257;52.158;9.968;2022-08-03T01:26:02;21.70;60.50
14347;DHT22;7257;52.158;9.968;2022-08-03T01:27:02;21.70;62.60
14347;DHT22;7257;52.158;9.968;2022-08-03T01:27:30;21.70;63.20
14347;DHT22;7257;52.158;9.968;2022-08-03T01:28:01;21.70;60.80
14347;DHT22;7257;52.158;9.968;2022-08-03T01:28:39;21.70;60.10
14347;DHT22;7257;52.158;9.968;2022-08-03T01:30:03;21.70;61.90
14347;DHT22;7257;52.158;9.968;2022-08-03T01:30:28;21.60;62.00
14347;DHT22;7257;52.158;9.968;2022-08-03T01:30:53;21.60;67.40
14347;DHT22;7257;52.158;9.968;2022-08-03T01:31:20;21.60;60.80
14347;DHT22;7257;52.158;9.968;2022-08-03T01:31:44;21.60;62.10
14347;DHT22;7257;52.158;9.968;2022-08-03T01:32:12;21.60;62.00
14347;DHT22;7257;52.158;9.968;2022-08-03T01:32:40;21.70;62.60
14347;DHT22;7257;52.158;9.968;2022-08-03T01:33:04;21.70;61.10
14347;DHT22;7257;52.158;9.968;2022-08-03T01:33:34;21.70;60.70
14347;DHT22;7257;52.158;9.968;2022-08-03T01:34:00;21.70;60.50
14347;DHT22;7257;52.158;9.968;2022-08-03T01:34:24;21.70;62.00
14347;DHT22;7257;52.158;9.968;2022-08-03T01:34:49;21.70;64.10
14347;DHT22;7257;52.158;9.968;2022-08-03T01:35:13;21.70;66.10
14347;DHT22;7257;52.158;9.968;2022-08-03T01:35:41;21.70;62.30
14347;DHT22;7257;52.158;9.968;2022-08-03T01:36:06;21.70;64.70
14347;DHT22;7257;52.158;9.968;2022-08-03T01:36:33;21.60;61.50
14347;DHT22;7257;52.158;9.968;2022-08-03T01:36:56;21.70;62.00
14347;DHT22;7257;52.158;9.968;2022-08-03T01:37:23;21.60;62.60
14347;DHT22;7257;52.158;9.968;2022-08-03T01:37:54;21.70;62.40
14347;DHT22;7257;52.158;9.968;2022-08-03T01:38:22;21.70;64.10
14347;DHT22;7257;52.158;9.968;2022-08-03T01:38:47;21.50;62.00
14347;DHT22;7257;52.158;9.968;2022-08-03T01:39:09;21.50;63.80
14347;DHT22;7257;52.158;9.968;2022-08-03T01:39:32;21.50;63.60
14347;DHT22;7257;52.158;9.968;2022-08-03T01:39:57;21.50;63.20
14347;DHT22;7257;52.158;9.968;2022-08-03T01:40:21;21.50;64.50
14347;DHT22;7257;52.158;9.968;2022-08-03T01:40:45;21.50;64.10
14347;DHT22;7257;52.158;9.968;2022-08-03T01:41:14;21.50;59.80
14347;DHT22;7257;52.158;9.968;2022-08-03T01:41:41;21.50;60.20
14347;DHT22;7257;52.158;9.968;2022-08-03T01:42:05;21.60;61.30
14347;DHT22;7257;52.158;9.968;2022-08-03T01:42:27;21.50;64.00
14347;DHT22;7257;52.158;9.968;2022-08-03T01:42:53;21.50;62.00
14347;DHT22;7257;52.158;9.968;2022-08-03T01:43:17;21.40;61.50
14347;DHT22;7257;52.158;9.968;2022-08-03T01:43:41;21.60;60.60
14347;DHT22;7257;52.158;9.968;2022-08-03T01:44:05;21.40;61.30
14347;DHT22;7257;52.158;9.968;2022-08-03T01:44:29;21.50;62.40
14347;DHT22;7257;52.158;9.968;2022-08-03T01:44:51;21.50;61.10
14347;DHT22;7257;52.158;9.968;2022-08-03T01:45:15;21.50;61.00
14347;DHT22;7257;52.158;9.968;2022-08-03T01:45:39;21.50;62.20
14347;DHT22;7257;52.158;9.968;2022-08-03T01:46:02;21.50;62.50
14347;DHT22;7257;52.158;9.968;2022-08-03T01:46:24;21.50;65.20
14347;DHT22;7257;52.158;9.968;2022-08-03T01:46:46;21.50;64.40
14347;DHT22;7257;52.158;9.968;2022-08-03T01:47:09;21.50;65.80
14347;DHT22;7257;52.158;9.968;2022-08-03T01:47:32;21.50;63.50
14347;DHT22;7257;52.158;9.968;2022-08-03T01:47:54;21.50;68.90
14347;DHT22;7257;52.158;9.968;2022-08-03T01:48:16;21.50;65.20
14347;DHT22;7257;52.158;9.968;2022-08-03T01:48:40;21.50;64.20
14347;DHT22;7257;52.158;9.968;2022-08-03T01:49:03;21.50;65.90
14347;DHT22;7257;52.158;9.968;2022-08-03T01:49:29;21.50;65.10
14347;DHT22;7257;52.158;9.968;2022-08-03T01:49:50;21.50;63.50
14347;DHT22;7257;52.158;9.968;2022-08-03T01:50:12;21.50;64.70
14347;DHT22;7257;52.158;9.968;2022-08-03T01:50:34;21.50;62.70
14347;DHT22;7257;52.158;9.968;2022-08-03T01:50:56;21.50;63.00
14347;DHT22;7257;52.158;9.968;2022-08-03T01:51:21;21.50;64.20
14347;DHT22;7257;52.158;9.968;2022-08-03T01:51:44;21.50;64.10
14347;DHT22;7257;52.158;9.968;2022-08-03T01:52:05;21.50;62.40
14347;DHT22;7257;52.158;9.968;2022-08-03T01:52:28;21.60;62.30
14347;DHT22;7257;52.158;9.968;2022-08-03T01:52:52;21.50;63.00
14347;DHT22;7257;52.158;9.968;2022-08-03T01:53:15;21.50;63.00
14347;DHT22;7257;52.158;9.968;2022-08-03T01:53:37;21.50;63.20
14347;DHT22;7257;52.158;9.968;2022-08-03T01:54:03;21.50;61.80
14347;DHT22;7257;52.158;9.968;2022-08-03T01:54:27;21.50;62.70
14347;DHT22;7257;52.158;9.968;2022-08-03T01:54:50;21.50;63.60
14347;DHT22;7257;52.158;9.968;2022-08-03T01:55:12;21.50;63.50
14347;DHT22;7257;52.158;9.968;2022-08-03T01:55:34;21.60;62.40
14347;DHT22;7257;52.158;9.968;2022-08-03T01:55:58;21.60;62.80
14347;DHT22;7257;52.158;9.968;2022-08-03T01:56:22;21.60;63.50
14347;DHT22;7257;52.158;9.968;2022-08-03T01:56:44;21.50;64.10
14347;DHT22;7257;52.158;9.968;2022-08-03T01:57:06;21.50;63.30
14347;DHT22;7257;52.158;9.968;2022-08-03T01:57:30;21.50;62.50
14347;DHT22;7257;52.158;9.968;2022-08-03T01:57:51;21.60;64.00
14347;DHT22;7257;52.158;9.968;2022-08-03T01:58:14;21.60;62.50
14347;DHT22;7257;52.158;9.968;2022-08-03T01:58:36;21.50;63.70
14347;DHT22;7257;52.158;9.968;2022-08-03T01:59:00;21.50;63.10
14347;DHT22;7257;52.158;9.968;2022-08-03T01:59:23;21.50;62.80
14347;DHT22;7257;52.158;9.968;2022-08-03T01:59:46;21.50;61.70
14347;DHT22;7257;52.158;9.968;2022-08-03T02:00:09;21.50;62.30
14347;DHT22;7257;52.158;9.968;2022-08-03T02:00:33;21.50;62.60
14347;DHT22;7257;52.158;9.968;2022-08-03T02:00:56;21.40;62.80
14347;DHT22;7257;52.158;9.968;2022-08-03T02:01:21;21.50;64.20
14347;DHT22;7257;52.158;9.968;2022-08-03T02:01:44;21.50;64.20
14347;DHT22;7257;52.158;9.968;2022-08-03T02:02:06;21.40;63.80
14347;DHT22;7257;52.158;9.968;2022-08-03T02:02:30;21.40;62.50
14347;DHT22;7257;52.158;9.968;2022-08-03T02:02:53;21.40;62.30
14347;DHT22;7257;52.158;9.968;2022-08-03T02:03:15;21.40;62.20
14347;DHT22;7257;52.158;9.968;2022-08-03T02:03:39;21.40;62.60
14347;DHT22;7257;52.158;9.968;2022-08-03T02:04:03;21.40;62.60
14347;DHT22;7257;52.158;9.968;2022-08-03T02:04:25;21.50;63.80
14347;DHT22;7257;52.158;9.968;2022-08-03T02:04:48;21.50;63.70
14347;DHT22;7257;52.158;9.968;2022-08-03T02:05:11;21.50;62.70
14347;DHT22;7257;52.158;9.968;2022-08-03T02:05:35;21.50;63.70
14347;DHT22;7257;52.158;9.968;2022-08-03T02:05:58;21.50;63.20
14347;DHT22;7257;52.158;9.968;2022-08-03T02:06:20;21.50;62.70
14347;DHT22;7257;52.158;9.968;2022-08-03T02:06:42;21.40;61.90
14347;DHT22;7257;52.158;9.968;2022-08-03T02:07:06;21.40;63.00
14347;DHT22;7257;52.158;9.968;2022-08-03T02:07:28;21.40;61.50
14347;DHT22;7257;52.158;9.968;2022-08-03T02:07:50;21.40;61.60
14347;DHT22;7257;52.158;9.968;2022-08-03T02:08:15;21.40;62.60
14347;DHT22;7257;52.158;9.968;2022-08-03T02:08:36;21.40;61.70
14347;DHT22;7257;52.158;9.968;2022-08-03T02:08:58;21.40;62.00
14347;DHT22;7257;52.158;9.968;2022-08-03T02:09:21;21.40;62.20
14347;DHT22;7257;52.158;9.968;2022-08-03T02:09:44;21.40;62.40
14347;DHT22;7257;52.158;9.968;2022-08-03T02:10:08;21.50;62.40
14347;DHT22;7257;52.158;9.968;2022-08-03T02:10:31;21.50;63.40
14347;DHT22;7257;52.158;9.968;2022-08-03T02:10:54;21.40;63.20
14347;DHT22;7257;52.158;9.968;2022-08-03T02:11:16;21.40;63.60
14347;DHT22;7257;52.158;9.968;2022-08-03T02:11:39;21.40;64.90
14347;DHT22;7257;52.158;9.968;2022-08-03T02:12:00;21.40;62.40
14347;DHT22;7257;52.158;9.968;2022-08-03T02:12:23;21.40;61.20
14347;DHT22;7257;52.158;9.968;2022-08-03T02:12:45;21.40;60.00
14347;DHT22;7257;52.158;9.968;2022-08-03T02:13:09;21.40;60.10
14347;DHT22;7257;52.158;9.968;2022-08-03T02:13:32;21.40;66.00
14347;DHT22;7257;52.158;9.968;2022-08-03T02:13:54;21.30;63.20
14347;DHT22;7257;52.158;9.968;2022-08-03T02:14:16;21.30;59.60
14347;DHT22;7257;52.158;9.968;2022-08-03T02:14:42;21.30;61.00
14347;DHT22;7257;52.158;9.968;2022-08-03T02:15:04;21.30;60.70
14347;DHT22;7257;52.158;9.968;2022-08-03T02:15:27;21.30;61.30
14347;DHT22;7257;52.158;9.968;2022-08-03T02:15:51;21.30;61.90
14347;DHT22;7257;52.158;9.968;2022-08-03T02:16:14;21.30;65.00
14347;DHT22;7257;52.158;9.968;2022-08-03T02:16:37;21.30;64.90
14347;DHT22;7257;52.158;9.968;2022-08-03T02:16:59;21.40;62.40
14347;DHT22;7257;52.158;9.968;2022-08-03T02:17:22;21.30;60.90
14347;DHT22;7257;52.158;9.968;2022-08-03T02:17:46;21.40;62.10
14347;DHT22;7257;52.158;9.968;2022-08-03T02:18:08;21.40;62.40
14347;DHT22;7257;52.158;9.968;2022-08-03T02:18:31;21.40;61.60
14347;DHT22;7257;52.158;9.968;2022-08-03T02:18:53;21.40;65.90
14347;DHT22;7257;52.158;9.968;2022-08-03T02:19:15;21.40;62.50
14347;DHT22;7257;52.158;9.968;2022-08-03T02:19:39;21.40;63.60
14347;DHT22;7257;52.158;9.968;2022-08-03T02:20:00;21.40;60.40
14347;DHT22;7257;52.158;9.968;2022-08-03T02:20:23;21.40;60.10
14347;DHT22;7257;52.158;9.968;2022-08-03T02:20:45;21.40;62.10
14347;DHT22;7257;52.158;9.968;2022-08-03T02:21:08;21.30;63.90
14347;DHT22;7257;52.158;9.968;2022-08-03T02:21:32;21.40;66.60
14347;DHT22;7257;52.158;9.968;2022-08-03T02:21:55;21.40;63.80
14347;DHT22;7257;52.158;9.968;2022-08-03T02:22:17;21.40;63.00
14347;DHT22;7257;52.158;9.968;2022-08-03T02:22:40;21.40;64.50
14347;DHT22;7257;52.158;9.968;2022-08-03T02:23:02;21.40;66.70
14347;DHT22;7257;52.158;9.968;2022-08-03T02:23:23;21.40;66.50
14347;DHT22;7257;52.158;9.968;2022-08-03T02:23:44;21.40;63.60
14347;DHT22;7257;52.158;9.968;2022-08-03T02:24:05;21.40;64.50
14347;DHT22;7257;52.158;9.968;2022-08-03T02:24:27;21.40;61.10
14347;DHT22;7257;52.158;9.968;2022-08-03T02:24:49;21.40;62.50
14347;DHT22;7257;52.158;9.968;2022-08-03T02:25:12;21.40;69.50
14347;DHT22;7257;52.158;9.968;2022-08-03T02:25:34;21.40;61.70
14347;DHT22;7257;52.158;9.968;2022-08-03T02:26:00;21.40;60.50
14347;DHT22;7257;52.158;9.968;2022-08-03T02:26:23;21.30;66.10
14347;DHT22;7257;52.158;9.968;2022-08-03T02:26:49;21.30;63.30
14347;DHT22;7257;52.158;9.968;2022-08-03T02:27:17;21.30;63.20
14347;DHT22;7257;52.158;9.968;2022-08-03T02:27:50;21.30;65.60
14347;DHT22;7257;52.158;9.968;2022-08-03T02:28:16;21.30;62.60
14347;DHT22;7257;52.158;9.968;2022-08-03T02:28:41;21.20;63.40
14347;DHT22;7257;52.158;9.968;2022-08-03T02:29:06;21.30;63.60
14347;DHT22;7257;52.158;9.968;2022-08-03T02:29:32;21.20;64.00
14347;DHT22;7257;52.158;9.968;2022-08-03T02:30:05;21.30;65.20
14347;DHT22;7257;52.158;9.968;2022-08-03T02:30:32;21.20;64.00
14347;DHT22;7257;52.158;9.968;2022-08-03T02:30:59;21.20;68.70
14347;DHT22;7257;52.158;9.968;2022-08-03T02:31:25;21.20;72.80
14347;DHT22;7257;52.158;9.968;2022-08-03T02:31:48;21.20;66.20